Time;durP1;ratioP1;P1;durP2;ratioP2;P2;SDS_P1;SDS_P2;PMS_P1;PMS_P2;Temp;Humidity;BMP_temperature;BMP_pressure;BME280_temperature;BME280_humidity;BME280_pressure;Samples;Min_cycle;Max_cycle;Signal;HPM_P1;HPM_P2
2023/06/19 00:01:45;;;;;;;10.40;7.80;;;28.20;39.80;;;;;;4933926;29;20446;-86
2023/06/19 00:04:12;;;;;;;9.80;8.90;;;28.20;40.10;;;;;;4907186;29;20556;-86
2023/06/19 00:06:39;;;;;;;9.17;8.13;;;28.20;40.50;;;;;;4910422;29;20454;-87
2023/06/19 00:09:07;;;;;;;9.50;8.60;;;28.20;40.80;;;;;;4918410;29;20473;-86
2023/06/19 00:11:34;;;;;;;11.23;8.97;;;28.20;41.00;;;;;;4933788;28;20445;-85
2023/06/19 00:14:03;;;;;;;10.07;8.50;;;28.20;41.30;;;;;;4920207;29;20462;-86
2023/06/19 00:16:30;;;;;;;9.90;8.90;;;28.20;41.50;;;;;;4919546;29;20987;-87
2023/06/19 00:18:57;;;;;;;11.47;9.20;;;28.20;41.70;;;;;;4905165;29;20462;-87
2023/06/19 00:21:25;;;;;;;10.67;9.03;;;28.10;41.30;;;;;;4901856;29;20471;-86
2023/06/19 00:23:52;;;;;;;12.27;10.93;;;28.20;41.70;;;;;;4916751;29;20479;-86
2023/06/19 00:26:22;;;;;;;13.73;9.73;;;28.10;42.00;;;;;;4928307;29;20462;-86
2023/06/19 00:28:49;;;;;;;12.37;9.10;;;28.10;41.90;;;;;;4915461;29;20481;-86
2023/06/19 00:31:18;;;;;;;9.50;8.47;;;28.10;42.10;;;;;;4922370;29;20684;-86
2023/06/19 00:33:47;;;;;;;12.50;9.50;;;28.00;41.80;;;;;;4929310;29;20543;-86
2023/06/19 00:36:19;;;;;;;10.27;8.17;;;28.10;41.60;;;;;;4906828;29;20538;-86
2023/06/19 00:38:47;;;;;;;10.13;9.17;;;28.00;41.90;;;;;;4903056;29;20953;-85
2023/06/19 00:41:16;;;;;;;10.13;9.13;;;28.00;42.10;;;;;;4903763;29;20451;-87
2023/06/19 00:43:44;;;;;;;9.70;8.80;;;28.00;42.20;;;;;;4922571;29;20992;-86
2023/06/19 00:46:12;;;;;;;10.83;9.73;;;28.00;42.30;;;;;;4934532;29;20881;-87
2023/06/19 00:48:40;;;;;;;12.33;9.77;;;28.00;42.30;;;;;;4919425;29;20454;-86
2023/06/19 00:51:08;;;;;;;10.10;9.10;;;28.00;42.10;;;;;;4922708;29;20506;-86
2023/06/19 00:53:35;;;;;;;9.83;8.83;;;27.90;42.10;;;;;;4909357;29;20469;-87
2023/06/19 00:56:04;;;;;;;10.60;9.60;;;27.90;42.30;;;;;;4924738;29;20455;-86
2023/06/19 00:58:31;;;;;;;9.93;8.93;;;27.90;42.30;;;;;;4910135;29;20454;-87
2023/06/19 01:00:59;;;;;;;10.43;9.20;;;27.80;42.30;;;;;;4919903;29;20483;-86
2023/06/19 01:03:26;;;;;;;11.13;9.70;;;27.80;41.90;;;;;;4915165;29;20478;-87
2023/06/19 01:05:57;;;;;;;9.43;8.53;;;27.80;41.60;;;;;;4921411;29;20485;-86
2023/06/19 01:08:51;;;;;;;11.47;9.70;;;27.70;41.80;;;;;;4916741;29;20454;-87
2023/06/19 01:11:24;;;;;;;10.57;8.57;;;27.70;41.70;;;;;;4915496;29;20538;-86
2023/06/19 01:13:57;;;;;;;10.43;9.27;;;27.60;41.70;;;;;;4908961;29;20454;-87
2023/06/19 01:16:25;;;;;;;11.83;10.40;;;27.60;41.40;;;;;;4907769;29;20858;-86
2023/06/19 01:18:52;;;;;;;10.07;9.07;;;27.50;41.10;;;;;;4925301;29;21016;-86
2023/06/19 01:21:20;;;;;;;13.33;9.87;;;27.40;41.20;;;;;;4922930;28;20469;-86
2023/06/19 01:23:49;;;;;;;10.23;9.20;;;27.40;41.40;;;;;;4935879;29;20451;-86
2023/06/19 01:26:17;;;;;;;10.17;9.10;;;27.40;41.20;;;;;;4907574;29;20462;-86
2023/06/19 01:28:46;;;;;;;9.60;8.70;;;27.40;41.10;;;;;;4915666;29;20447;-86
2023/06/19 01:31:18;;;;;;;10.87;8.73;;;27.40;41.10;;;;;;4907681;29;20474;-86
2023/06/19 01:33:47;;;;;;;10.13;9.13;;;27.40;40.80;;;;;;4916915;29;20488;-86
2023/06/19 01:36:18;;;;;;;10.60;9.40;;;27.40;41.10;;;;;;4933258;29;20994;-87
2023/06/19 01:38:48;;;;;;;10.73;9.67;;;27.30;41.00;;;;;;4919692;29;20462;-87
2023/06/19 01:41:18;;;;;;;9.87;8.87;;;27.20;40.00;;;;;;4915295;29;21150;-87
2023/06/19 01:43:47;;;;;;;10.00;9.00;;;27.10;40.60;;;;;;4908122;29;20447;-88
2023/06/19 01:46:14;;;;;;;11.03;9.43;;;27.00;41.00;;;;;;4923227;29;20454;-87
2023/06/19 01:48:41;;;;;;;10.27;9.20;;;26.90;40.40;;;;;;4911953;29;20453;-86
2023/06/19 01:51:08;;;;;;;10.13;9.13;;;26.90;40.50;;;;;;4911194;29;20477;-87
2023/06/19 01:53:35;;;;;;;11.10;9.80;;;26.90;40.60;;;;;;4933257;29;20465;-88
2023/06/19 01:56:03;;;;;;;10.70;9.60;;;26.90;40.80;;;;;;4911349;29;20478;-87
2023/06/19 01:58:32;;;;;;;9.80;8.80;;;26.90;40.80;;;;;;4904832;29;20860;-87
2023/06/19 02:00:59;;;;;;;12.13;9.37;;;26.80;40.40;;;;;;4935441;28;21266;-87
2023/06/19 02:03:26;;;;;;;11.17;10.00;;;26.70;40.40;;;;;;4916376;29;20447;-87
2023/06/19 02:05:53;;;;;;;9.27;8.40;;;26.60;40.60;;;;;;4921879;29;20506;-87
2023/06/19 02:08:20;;;;;;;10.50;9.37;;;26.50;40.40;;;;;;4907278;29;20794;-87
2023/06/19 02:10:48;;;;;;;9.67;8.30;;;26.50;40.60;;;;;;4921770;29;20465;-87
2023/06/19 02:13:14;;;;;;;9.63;8.63;;;26.50;40.80;;;;;;4905340;29;20527;-86
2023/06/19 02:15:43;;;;;;;10.33;8.73;;;26.40;41.10;;;;;;4923475;29;20453;-86
2023/06/19 02:18:10;;;;;;;10.90;8.90;;;26.40;41.60;;;;;;4910161;29;20458;-86
2023/06/19 02:20:37;;;;;;;11.93;9.83;;;26.40;41.90;;;;;;4941843;28;20474;-86
2023/06/19 02:23:04;;;;;;;10.77;9.70;;;26.30;42.00;;;;;;4910150;29;20504;-88
2023/06/19 02:25:31;;;;;;;10.87;9.77;;;26.30;42.40;;;;;;4904562;29;20481;-86
2023/06/19 02:27:58;;;;;;;11.13;9.50;;;26.20;42.70;;;;;;4941302;28;20465;-87
2023/06/19 02:30:25;;;;;;;12.23;9.33;;;26.20;43.00;;;;;;4905528;29;20481;-88
2023/06/19 02:32:53;;;;;;;10.20;9.20;;;26.10;43.40;;;;;;4910414;28;20446;-86
2023/06/19 02:35:20;;;;;;;11.40;9.90;;;25.80;42.80;;;;;;4908815;29;20870;-86
2023/06/19 02:37:47;;;;;;;12.00;10.57;;;25.70;43.50;;;;;;4922517;29;20462;-87
2023/06/19 02:40:15;;;;;;;11.00;9.73;;;25.60;42.20;;;;;;4930551;28;20478;-87
2023/06/19 02:42:41;;;;;;;11.57;10.37;;;25.40;42.70;;;;;;4914890;29;20450;-87
2023/06/19 02:45:09;;;;;;;10.83;9.70;;;25.50;43.30;;;;;;4923371;29;20465;-87
2023/06/19 02:47:36;;;;;;;10.50;9.50;;;25.60;43.10;;;;;;4940529;29;20536;-84
2023/06/19 02:50:06;;;;;;;11.90;9.40;;;25.70;43.00;;;;;;4907542;29;20467;-87
2023/06/19 02:52:33;;;;;;;11.70;10.50;;;25.70;42.80;;;;;;4905567;29;20948;-86
2023/06/19 02:55:00;;;;;;;14.60;10.20;;;25.70;42.60;;;;;;4923410;29;20469;-87
2023/06/19 02:57:27;;;;;;;10.10;9.10;;;25.70;42.50;;;;;;4913685;29;20541;-87
2023/06/19 02:59:54;;;;;;;10.60;9.00;;;25.70;42.30;;;;;;4911539;29;20481;-87
2023/06/19 03:02:21;;;;;;;10.93;9.83;;;25.70;42.90;;;;;;4910968;29;20458;-87
2023/06/19 03:04:49;;;;;;;10.43;9.30;;;25.70;43.10;;;;;;4915254;29;20462;-86
2023/06/19 03:07:17;;;;;;;11.43;10.33;;;25.70;43.10;;;;;;4917846;29;20455;-87
2023/06/19 03:09:44;;;;;;;11.23;10.07;;;25.70;43.60;;;;;;4945373;28;20469;-87
2023/06/19 03:12:11;;;;;;;11.20;10.10;;;25.70;44.40;;;;;;4924626;29;20479;-87
2023/06/19 03:14:39;;;;;;;11.30;10.10;;;25.60;44.80;;;;;;4925711;29;20439;-88
2023/06/19 03:17:07;;;;;;;11.47;10.37;;;25.60;45.30;;;;;;4924851;29;20443;-88
2023/06/19 03:19:35;;;;;;;11.63;10.27;;;25.60;45.80;;;;;;4919860;29;21266;-87
2023/06/19 03:22:03;;;;;;;12.67;10.50;;;25.60;46.50;;;;;;4913958;29;20891;-87
2023/06/19 03:24:31;;;;;;;14.53;11.57;;;25.50;46.60;;;;;;4911573;29;20972;-88
2023/06/19 03:27:11;;;;;;;13.47;12.17;;;25.50;47.50;;;;;;4907311;29;20461;-88
2023/06/19 03:29:38;;;;;;;13.60;10.27;;;25.50;47.40;;;;;;4933882;29;20558;-87
2023/06/19 03:32:08;;;;;;;11.67;10.47;;;25.50;47.40;;;;;;4912667;29;20453;-87
2023/06/19 03:34:35;;;;;;;11.90;10.60;;;25.50;48.00;;;;;;4910158;29;20991;-87
2023/06/19 03:37:07;;;;;;;12.73;10.23;;;25.50;48.20;;;;;;4923608;29;21571;-87
2023/06/19 03:39:36;;;;;;;13.10;11.07;;;25.50;48.60;;;;;;4926807;29;20505;-86
2023/06/19 03:42:08;;;;;;;12.07;10.87;;;25.50;48.50;;;;;;4923274;29;20486;-86
2023/06/19 03:44:35;;;;;;;13.23;10.63;;;25.50;48.40;;;;;;4913122;29;20450;-86
2023/06/19 03:47:02;;;;;;;11.20;10.10;;;25.50;46.30;;;;;;4924550;29;20453;-89
2023/06/19 03:49:31;;;;;;;12.70;11.50;;;25.20;46.30;;;;;;4907944;29;20466;-88
2023/06/19 03:51:58;;;;;;;11.73;10.20;;;25.00;46.70;;;;;;4912364;29;20466;-89
2023/06/19 03:54:26;;;;;;;13.70;11.00;;;25.00;47.10;;;;;;4911712;29;20486;-88
2023/06/19 03:56:54;;;;;;;12.50;11.20;;;25.10;47.20;;;;;;4913829;29;20960;-89
2023/06/19 03:59:23;;;;;;;11.90;10.70;;;25.30;46.90;;;;;;4913628;29;20493;-89
2023/06/19 04:01:50;;;;;;;12.17;10.93;;;25.30;47.00;;;;;;4905160;29;20879;-88
2023/06/19 04:04:18;;;;;;;12.10;9.93;;;25.20;46.90;;;;;;4921218;29;20451;-88
2023/06/19 04:06:46;;;;;;;11.77;10.67;;;25.20;47.00;;;;;;4927551;29;20505;-89
2023/06/19 04:09:13;;;;;;;13.17;10.63;;;25.30;47.20;;;;;;4913510;29;20505;-89
2023/06/19 04:11:40;;;;;;;11.10;9.90;;;25.30;47.10;;;;;;4922593;29;20491;-89
2023/06/19 04:14:09;;;;;;;14.00;11.30;;;25.40;47.00;;;;;;4907257;29;20454;-88
2023/06/19 04:16:37;;;;;;;11.20;10.03;;;25.40;47.00;;;;;;4926101;29;20967;-89
2023/06/19 04:19:04;;;;;;;10.53;9.43;;;25.50;47.10;;;;;;4923870;29;20457;-90
2023/06/19 04:21:31;;;;;;;10.63;9.60;;;25.50;47.10;;;;;;4915653;29;20538;-88
2023/06/19 04:23:58;;;;;;;11.47;10.00;;;25.50;47.10;;;;;;4908437;29;20510;-89
2023/06/19 04:26:25;;;;;;;13.20;10.77;;;25.60;47.30;;;;;;4914325;29;20467;-89
2023/06/19 04:28:52;;;;;;;11.60;10.53;;;25.60;47.80;;;;;;4958553;28;20435;-88
2023/06/19 04:31:21;;;;;;;11.97;10.77;;;25.70;48.10;;;;;;4914453;29;20447;-89
2023/06/19 04:33:48;;;;;;;10.73;9.63;;;25.70;47.50;;;;;;4913338;29;20966;-88
2023/06/19 04:36:16;;;;;;;13.27;11.53;;;25.70;47.70;;;;;;4912550;29;20434;-88
2023/06/19 04:38:44;;;;;;;11.70;10.57;;;25.60;48.00;;;;;;4911025;29;20486;-88
2023/06/19 04:41:11;;;;;;;14.70;11.20;;;25.60;48.70;;;;;;4940259;29;20705;-88
2023/06/19 04:43:41;;;;;;;10.67;9.67;;;25.70;48.60;;;;;;4912200;29;20542;-89
2023/06/19 04:46:09;;;;;;;12.93;10.70;;;25.70;48.30;;;;;;4922247;29;20465;-89
2023/06/19 04:48:39;;;;;;;13.57;11.50;;;25.70;48.30;;;;;;4907159;29;20469;-89
2023/06/19 04:51:06;;;;;;;11.80;10.57;;;25.70;47.90;;;;;;4922466;29;20477;-89
2023/06/19 04:53:33;;;;;;;12.13;10.93;;;25.40;49.00;;;;;;4920069;29;20509;-88
2023/06/19 04:56:01;;;;;;;11.40;10.07;;;25.40;49.90;;;;;;4907999;29;20461;-89
2023/06/19 04:58:28;;;;;;;12.47;10.33;;;25.50;50.10;;;;;;4917411;29;21036;-89
2023/06/19 05:00:56;;;;;;;12.27;10.97;;;25.60;50.10;;;;;;4912929;29;21119;-89
2023/06/19 05:03:23;;;;;;;11.90;10.60;;;25.60;50.20;;;;;;4919877;29;20470;-89
2023/06/19 05:05:51;;;;;;;12.87;11.50;;;25.70;50.10;;;;;;4911414;29;21078;-89
2023/06/19 05:08:19;;;;;;;12.63;11.03;;;25.70;50.00;;;;;;4906133;29;20473;-89
2023/06/19 05:10:46;;;;;;;11.20;10.00;;;25.70;50.10;;;;;;4908272;29;20478;-90
2023/06/19 05:13:13;;;;;;;12.80;11.03;;;25.80;50.00;;;;;;4920910;29;20454;-89
2023/06/19 05:15:40;;;;;;;14.57;10.50;;;25.80;50.00;;;;;;4907928;29;20957;-89
2023/06/19 05:18:07;;;;;;;11.33;10.23;;;25.80;48.50;;;;;;4911009;29;20461;-89
2023/06/19 05:20:34;;;;;;;11.63;10.23;;;25.80;49.60;;;;;;4904214;29;20867;-88
2023/06/19 05:23:03;;;;;;;12.07;10.80;;;25.70;50.10;;;;;;4920040;29;20528;-89
2023/06/19 05:25:30;;;;;;;11.93;10.30;;;25.70;50.20;;;;;;4909206;29;20493;-88
2023/06/19 05:27:57;;;;;;;13.10;11.27;;;25.60;50.90;;;;;;4923267;29;20459;-89
2023/06/19 05:30:24;;;;;;;12.90;10.70;;;25.50;51.10;;;;;;4909179;29;20582;-89
2023/06/19 05:32:51;;;;;;;13.03;11.10;;;25.70;50.70;;;;;;4924309;29;20457;-89
2023/06/19 05:35:18;;;;;;;12.10;10.30;;;25.90;50.20;;;;;;4912176;29;20463;-88
2023/06/19 05:37:46;;;;;;;12.87;11.57;;;25.80;50.00;;;;;;4899921;29;20463;-89
2023/06/19 05:40:15;;;;;;;12.73;11.53;;;25.90;49.90;;;;;;4917488;29;20601;-89
2023/06/19 05:42:42;;;;;;;12.27;10.97;;;25.90;49.30;;;;;;4932321;29;20821;-90
2023/06/19 05:45:09;;;;;;;12.87;11.20;;;25.90;49.60;;;;;;4902216;29;20442;-88
2023/06/19 05:47:36;;;;;;;12.10;10.40;;;26.00;49.60;;;;;;4900687;29;20988;-88
2023/06/19 05:50:04;;;;;;;13.90;10.70;;;26.20;49.40;;;;;;4933784;28;20478;-89
2023/06/19 05:52:31;;;;;;;16.87;11.93;;;26.20;49.00;;;;;;4924307;29;20454;-90
2023/06/19 05:54:59;;;;;;;11.27;10.13;;;26.30;48.90;;;;;;4909162;29;20574;-90
2023/06/19 05:57:27;;;;;;;12.07;10.83;;;26.40;48.20;;;;;;4924231;29;20541;-90
2023/06/19 05:59:54;;;;;;;11.17;10.10;;;26.50;47.60;;;;;;4907606;29;20478;-90
2023/06/19 06:02:21;;;;;;;11.27;10.17;;;26.50;47.80;;;;;;4906016;29;20461;-89
2023/06/19 06:04:48;;;;;;;15.10;11.40;;;26.60;48.00;;;;;;4936700;29;20558;-89
2023/06/19 06:07:15;;;;;;;13.33;11.60;;;26.50;48.00;;;;;;4909870;29;20482;-90
2023/06/19 06:09:42;;;;;;;12.60;11.30;;;26.60;48.30;;;;;;4931206;28;20551;-90
2023/06/19 06:12:10;;;;;;;12.67;10.93;;;26.70;47.40;;;;;;4919548;29;21122;-89
2023/06/19 06:14:38;;;;;;;14.13;10.80;;;26.50;47.10;;;;;;4905244;29;20841;-89
2023/06/19 06:17:06;;;;;;;10.93;9.83;;;26.30;47.80;;;;;;4935364;29;21088;-89
2023/06/19 06:19:33;;;;;;;10.43;8.67;;;26.30;48.50;;;;;;4920754;29;20506;-89
2023/06/19 06:22:00;;;;;;;7.70;6.70;;;26.50;47.90;;;;;;4920540;29;20462;-89
2023/06/19 06:24:27;;;;;;;9.50;6.97;;;26.80;47.20;;;;;;4920772;29;20836;-90
2023/06/19 06:26:54;;;;;;;8.30;7.37;;;27.00;47.00;;;;;;4902265;29;20490;-89
2023/06/19 06:29:21;;;;;;;9.17;7.50;;;27.10;46.80;;;;;;4919770;29;20471;-89
2023/06/19 06:31:52;;;;;;;9.90;8.20;;;27.20;46.90;;;;;;4915663;29;20463;-90
2023/06/19 06:34:19;;;;;;;9.60;8.40;;;27.50;46.40;;;;;;4909301;29;20499;-90
2023/06/19 06:36:46;;;;;;;8.30;7.50;;;27.70;46.30;;;;;;4924458;29;20464;-89
2023/06/19 06:39:14;;;;;;;6.53;5.97;;;27.90;45.40;;;;;;4909594;29;20756;-90
2023/06/19 06:41:41;;;;;;;7.60;6.90;;;27.80;45.00;;;;;;4919971;29;21135;-88
2023/06/19 06:44:12;;;;;;;7.80;7.00;;;28.00;45.50;;;;;;4914725;29;20516;-89
2023/06/19 06:46:39;;;;;;;10.20;6.67;;;28.00;45.10;;;;;;4910853;29;20474;-90
2023/06/19 06:49:07;;;;;;;7.53;6.73;;;28.00;45.30;;;;;;4914678;29;20457;-89
2023/06/19 06:51:35;;;;;;;7.00;6.30;;;27.90;45.70;;;;;;4909074;29;20455;-90
2023/06/19 06:54:02;;;;;;;7.20;6.33;;;28.00;45.30;;;;;;4906802;29;20505;-90
2023/06/19 06:56:29;;;;;;;7.07;5.23;;;28.10;45.20;;;;;;4906743;29;20461;-89
2023/06/19 06:58:56;;;;;;;8.73;5.90;;;28.20;44.90;;;;;;4924318;28;20458;-90
2023/06/19 07:01:23;;;;;;;13.50;5.57;;;28.30;45.40;;;;;;4921072;29;20483;-89
2023/06/19 07:03:50;;;;;;;9.57;6.23;;;28.60;45.00;;;;;;4922612;29;20864;-89
2023/06/19 07:06:19;;;;;;;8.13;5.80;;;28.80;43.70;;;;;;4911194;29;20474;-89
2023/06/19 07:08:47;;;;;;;6.93;4.97;;;28.90;43.80;;;;;;4912115;29;21183;-88
2023/06/19 07:11:14;;;;;;;5.93;5.33;;;28.90;44.20;;;;;;4950943;28;20942;-90
2023/06/19 07:13:41;;;;;;;5.50;5.10;;;29.00;44.70;;;;;;4920019;29;22145;-89
2023/06/19 07:16:08;;;;;;;6.20;4.90;;;29.10;45.60;;;;;;4900686;29;20635;-89
2023/06/19 07:18:38;;;;;;;5.60;5.13;;;29.20;44.10;;;;;;4901377;29;20487;-86
2023/06/19 07:21:11;;;;;;;6.03;5.17;;;29.40;43.40;;;;;;4912140;29;20482;-88
2023/06/19 07:23:40;;;;;;;5.27;4.77;;;29.50;43.80;;;;;;4903076;29;20462;-88
2023/06/19 07:26:07;;;;;;;5.07;4.67;;;29.60;43.60;;;;;;4912690;29;20509;-87
2023/06/19 07:28:36;;;;;;;4.53;4.13;;;29.50;43.40;;;;;;4937001;29;20502;-87
2023/06/19 07:31:03;;;;;;;7.37;4.90;;;29.30;43.90;;;;;;4908321;29;20878;-85
2023/06/19 07:33:30;;;;;;;5.17;4.37;;;29.20;43.30;;;;;;4937044;29;20457;-86
2023/06/19 07:35:57;;;;;;;5.63;5.07;;;29.20;44.30;;;;;;4921056;29;20450;-88
2023/06/19 07:38:24;;;;;;;5.97;5.20;;;29.20;43.60;;;;;;4940890;29;20457;-87
2023/06/19 07:40:53;;;;;;;5.53;5.00;;;29.30;43.70;;;;;;4935588;28;20526;-88
2023/06/19 07:43:22;;;;;;;5.70;5.20;;;29.40;44.10;;;;;;4918315;29;20443;-87
2023/06/19 07:45:49;;;;;;;4.67;4.20;;;29.30;44.00;;;;;;4933786;29;20459;-86
2023/06/19 07:48:16;;;;;;;5.47;4.63;;;29.20;44.20;;;;;;4906652;29;20879;-87
2023/06/19 07:50:43;;;;;;;5.30;4.50;;;29.40;45.00;;;;;;4927630;29;20477;-87
2023/06/19 07:53:10;;;;;;;5.27;4.77;;;29.40;42.90;;;;;;4938814;29;20482;-88
2023/06/19 07:55:37;;;;;;;5.50;4.90;;;29.50;43.90;;;;;;4908323;29;20455;-86
2023/06/19 07:58:05;;;;;;;5.40;4.90;;;29.60;43.10;;;;;;4911326;29;20459;-86
2023/06/19 08:00:32;;;;;;;5.63;4.97;;;29.80;43.90;;;;;;4907841;29;20466;-88
2023/06/19 08:02:59;;;;;;;6.00;5.00;;;30.00;44.20;;;;;;4925919;29;20450;-87
2023/06/19 08:05:26;;;;;;;6.07;5.23;;;30.30;42.70;;;;;;4934344;29;20454;-87
2023/06/19 08:07:53;;;;;;;5.50;5.10;;;30.50;42.50;;;;;;4919184;29;21107;-87
2023/06/19 08:10:20;;;;;;;5.93;5.23;;;30.50;42.60;;;;;;4934293;29;20475;-86
2023/06/19 08:12:47;;;;;;;5.67;4.57;;;30.60;42.10;;;;;;4910538;29;21009;-87
2023/06/19 08:15:15;;;;;;;7.00;4.90;;;30.70;41.10;;;;;;4926222;29;20459;-86
2023/06/19 08:17:42;;;;;;;5.50;5.00;;;30.80;41.20;;;;;;4926252;29;22613;-86
2023/06/19 08:20:10;;;;;;;5.13;4.63;;;30.90;41.80;;;;;;4909572;29;20475;-87
2023/06/19 08:22:37;;;;;;;5.20;4.80;;;30.80;40.90;;;;;;4940816;29;20462;-87
2023/06/19 08:25:05;;;;;;;5.20;4.80;;;30.50;41.70;;;;;;4912271;29;20458;-87
2023/06/19 08:27:32;;;;;;;5.97;5.47;;;30.60;42.60;;;;;;4900282;29;20580;-88
2023/06/19 08:29:59;;;;;;;4.97;4.60;;;30.60;43.30;;;;;;4904964;29;20474;-86
2023/06/19 08:32:28;;;;;;;4.60;4.20;;;30.80;42.70;;;;;;4901122;29;20537;-86
2023/06/19 08:34:55;;;;;;;5.23;4.83;;;30.90;41.70;;;;;;4924649;29;20477;-86
2023/06/19 08:37:22;;;;;;;10.20;5.10;;;31.10;41.60;;;;;;4920523;29;20455;-86
2023/06/19 08:39:49;;;;;;;4.97;4.57;;;31.10;41.90;;;;;;4908851;29;20502;-86
2023/06/19 08:42:16;;;;;;;5.20;4.70;;;31.20;41.80;;;;;;4920271;29;20461;-86
2023/06/19 08:44:43;;;;;;;9.77;5.17;;;31.30;41.70;;;;;;4930521;29;21494;-86
2023/06/19 08:47:10;;;;;;;4.90;4.50;;;31.40;41.40;;;;;;4931851;29;20482;-86
2023/06/19 08:49:38;;;;;;;5.70;5.03;;;31.50;42.20;;;;;;4908422;29;20478;-86
2023/06/19 08:52:06;;;;;;;5.63;4.83;;;31.50;40.70;;;;;;4908481;29;20451;-86
2023/06/19 08:54:34;;;;;;;6.00;4.90;;;31.70;40.90;;;;;;4940496;29;20552;-86
2023/06/19 08:57:01;;;;;;;5.07;4.60;;;31.50;40.80;;;;;;4933101;29;20442;-86
2023/06/19 08:59:29;;;;;;;8.03;4.70;;;31.60;42.30;;;;;;4923812;29;20476;-86
2023/06/19 09:01:56;;;;;;;4.93;4.53;;;31.60;40.50;;;;;;4932538;29;20443;-87
2023/06/19 09:04:30;;;;;;;6.07;5.47;;;31.60;41.10;;;;;;4892779;29;20979;-85
2023/06/19 09:07:02;;;;;;;5.57;5.07;;;31.80;40.90;;;;;;4907964;29;20473;-86
2023/06/19 09:09:32;;;;;;;5.63;4.97;;;31.90;40.80;;;;;;4919438;29;20482;-87
2023/06/19 09:12:01;;;;;;;6.13;5.63;;;31.60;40.70;;;;;;4919826;29;20470;-85
2023/06/19 09:14:36;;;;;;;5.67;5.17;;;31.60;40.70;;;;;;4933356;29;20478;-88
2023/06/19 09:17:03;;;;;;;5.23;4.73;;;31.70;40.70;;;;;;4933492;29;21000;-86
2023/06/19 09:19:31;;;;;;;5.63;5.17;;;31.70;41.20;;;;;;4930429;29;20506;-87
2023/06/19 09:22:04;;;;;;;7.10;5.00;;;31.90;41.40;;;;;;4905815;29;21155;-86
2023/06/19 09:24:36;;;;;;;5.13;4.73;;;32.00;41.00;;;;;;4908697;29;20554;-87
2023/06/19 09:27:13;;;;;;;5.40;4.90;;;32.20;41.00;;;;;;4917550;29;20471;-85
2023/06/19 09:29:40;;;;;;;5.47;5.07;;;32.30;41.30;;;;;;4907289;29;20999;-86
2023/06/19 09:32:18;;;;;;;5.73;5.30;;;32.10;40.20;;;;;;4931286;29;20447;-86
2023/06/19 09:34:46;;;;;;;5.57;5.07;;;31.90;41.00;;;;;;4937165;29;20446;-87
2023/06/19 09:37:15;;;;;;;6.60;6.00;;;31.80;40.90;;;;;;4906413;29;20451;-87
2023/06/19 09:39:42;;;;;;;6.10;5.57;;;31.70;41.10;;;;;;4917203;29;20479;-86
2023/06/19 09:42:14;;;;;;;7.53;5.70;;;31.60;41.60;;;;;;4923303;29;20969;-86
2023/06/19 09:44:42;;;;;;;5.93;5.37;;;31.50;42.00;;;;;;4908777;29;20464;-86
2023/06/19 09:47:18;;;;;;;6.07;5.47;;;31.40;41.80;;;;;;4916534;29;20474;-86
2023/06/19 09:49:51;;;;;;;6.33;5.80;;;31.00;42.40;;;;;;4934127;29;20497;-86
2023/06/19 09:52:22;;;;;;;6.73;5.87;;;31.00;43.30;;;;;;4934586;29;20457;-86
2023/06/19 09:54:51;;;;;;;6.80;6.00;;;31.10;43.00;;;;;;4923909;29;20490;-86
2023/06/19 09:57:19;;;;;;;6.50;5.90;;;31.10;42.30;;;;;;4915252;29;20477;-87
2023/06/19 09:59:49;;;;;;;7.07;6.37;;;31.30;42.80;;;;;;4922175;29;20491;-86
2023/06/19 10:02:17;;;;;;;6.67;6.07;;;31.50;43.00;;;;;;4940114;29;20459;-86
2023/06/19 10:04:46;;;;;;;6.13;5.63;;;31.40;42.30;;;;;;4907543;29;20585;-86
2023/06/19 10:07:18;;;;;;;7.60;5.90;;;31.30;42.20;;;;;;4916213;29;20482;-86
2023/06/19 10:10:04;;;;;;;7.60;6.90;;;31.40;42.60;;;;;;4919654;29;20536;-86
2023/06/19 10:12:36;;;;;;;6.17;5.67;;;31.60;42.30;;;;;;4920671;29;20458;-86
2023/06/19 10:15:17;;;;;;;6.47;5.93;;;31.60;41.90;;;;;;4918237;29;20889;-87
2023/06/19 10:17:46;;;;;;;6.10;5.50;;;31.70;41.40;;;;;;4915094;29;20457;-85
2023/06/19 10:20:25;;;;;;;6.63;5.90;;;31.80;42.10;;;;;;4896432;29;21013;-87
2023/06/19 10:22:58;;;;;;;7.23;6.53;;;32.00;41.50;;;;;;4906395;29;20450;-86
2023/06/19 10:25:28;;;;;;;6.50;5.87;;;32.10;41.10;;;;;;4914152;29;20469;-85
2023/06/19 10:27:55;;;;;;;7.20;6.50;;;32.10;41.50;;;;;;4928671;28;20927;-87
2023/06/19 10:30:22;;;;;;;7.33;6.70;;;32.10;40.40;;;;;;4905635;29;20550;-86
2023/06/19 10:32:50;;;;;;;5.70;5.30;;;32.40;40.80;;;;;;4904481;29;20462;-86
2023/06/19 10:35:21;;;;;;;6.83;5.97;;;32.60;39.40;;;;;;4896704;29;20562;-87
2023/06/19 10:37:50;;;;;;;6.17;5.67;;;32.80;40.30;;;;;;4902421;29;20941;-86
2023/06/19 10:40:19;;;;;;;6.00;5.50;;;32.90;40.10;;;;;;4920568;29;20585;-87
2023/06/19 10:42:47;;;;;;;6.20;5.70;;;33.20;39.30;;;;;;4905208;29;21055;-86
2023/06/19 10:45:16;;;;;;;6.17;5.57;;;33.10;39.90;;;;;;4913472;29;20469;-87
2023/06/19 10:47:44;;;;;;;6.17;5.63;;;33.00;39.90;;;;;;4895230;29;20498;-88
2023/06/19 10:50:12;;;;;;;6.47;5.87;;;32.90;39.20;;;;;;4896067;29;21101;-86
2023/06/19 10:52:44;;;;;;;7.63;6.77;;;32.70;39.50;;;;;;4936294;29;20474;-87
2023/06/19 10:55:12;;;;;;;7.07;6.27;;;32.50;40.90;;;;;;4915018;29;20443;-87
2023/06/19 10:57:41;;;;;;;6.57;5.87;;;32.50;41.10;;;;;;4918308;29;20842;-87
2023/06/19 11:00:12;;;;;;;6.80;6.20;;;32.60;40.30;;;;;;4899539;29;20482;-86
2023/06/19 11:02:43;;;;;;;6.20;5.70;;;32.70;40.90;;;;;;4917569;29;20613;-86
2023/06/19 11:05:12;;;;;;;6.23;5.70;;;33.00;40.70;;;;;;4933606;29;20514;-85
2023/06/19 11:07:39;;;;;;;6.50;5.90;;;33.10;39.90;;;;;;4903907;29;20474;-86
2023/06/19 11:10:08;;;;;;;6.80;6.10;;;33.10;39.80;;;;;;4931357;28;20511;-86
2023/06/19 11:12:35;;;;;;;6.70;6.00;;;33.10;39.60;;;;;;4931756;29;20474;-87
2023/06/19 11:15:06;;;;;;;6.80;6.20;;;32.90;39.50;;;;;;4919046;29;20545;-86
2023/06/19 11:17:34;;;;;;;6.67;6.03;;;33.00;40.90;;;;;;4930721;28;20450;-87
2023/06/19 11:20:01;;;;;;;6.37;5.73;;;33.40;39.90;;;;;;4919064;29;20557;-87
2023/06/19 11:22:39;;;;;;;7.63;6.30;;;33.60;39.70;;;;;;4919626;29;20905;-87
2023/06/19 11:25:07;;;;;;;7.37;5.90;;;33.60;38.80;;;;;;4920396;29;20470;-88
2023/06/19 11:27:35;;;;;;;7.00;6.30;;;33.30;39.40;;;;;;4915913;29;20470;-87
2023/06/19 11:30:04;;;;;;;6.77;6.17;;;33.50;40.50;;;;;;4919314;29;20598;-87
2023/06/19 11:32:35;;;;;;;7.00;6.50;;;33.50;39.90;;;;;;4930939;29;21241;-86
2023/06/19 11:35:08;;;;;;;6.70;6.10;;;33.90;38.80;;;;;;4939072;28;20976;-87
2023/06/19 11:37:35;;;;;;;7.13;6.50;;;34.20;37.40;;;;;;4915553;29;21274;-87
2023/06/19 11:40:09;;;;;;;9.63;6.40;;;34.10;38.10;;;;;;4924269;29;20475;-87
2023/06/19 11:42:46;;;;;;;7.50;6.17;;;34.20;38.20;;;;;;4900650;29;21038;-87
2023/06/19 11:45:13;;;;;;;7.53;6.93;;;34.60;36.70;;;;;;4922405;29;20459;-87
2023/06/19 11:47:43;;;;;;;9.17;6.20;;;34.70;35.90;;;;;;4933434;29;20470;-86
2023/06/19 11:50:11;;;;;;;7.23;6.63;;;34.70;36.60;;;;;;4934250;28;20478;-86
2023/06/19 11:52:38;;;;;;;7.00;6.50;;;34.50;36.70;;;;;;4918084;29;20573;-86
2023/06/19 11:55:06;;;;;;;7.07;6.47;;;34.50;37.30;;;;;;4926112;29;20865;-88
2023/06/19 11:57:33;;;;;;;7.60;6.90;;;34.40;36.90;;;;;;4919586;29;20443;-88
2023/06/19 12:00:00;;;;;;;7.57;6.87;;;34.50;36.00;;;;;;4907070;29;20553;-86
2023/06/19 12:02:27;;;;;;;10.43;7.53;;;34.70;36.10;;;;;;4917820;29;20954;-87
2023/06/19 12:04:56;;;;;;;7.40;6.70;;;34.60;35.80;;;;;;4935727;29;20462;-87
2023/06/19 12:07:23;;;;;;;6.90;6.30;;;34.50;36.10;;;;;;4909000;29;20964;-88
2023/06/19 12:09:51;;;;;;;7.77;7.07;;;34.40;37.30;;;;;;4922558;29;20484;-87
2023/06/19 12:12:18;;;;;;;7.07;6.37;;;34.50;36.60;;;;;;4924823;29;20486;-87
2023/06/19 12:14:45;;;;;;;6.87;6.30;;;34.60;36.60;;;;;;4932154;28;20451;-87
2023/06/19 12:17:12;;;;;;;7.03;6.33;;;34.30;36.70;;;;;;4940315;29;20999;-88
2023/06/19 12:19:39;;;;;;;6.50;5.97;;;34.60;37.10;;;;;;4932430;28;21013;-87
2023/06/19 12:22:07;;;;;;;7.27;6.67;;;34.70;35.80;;;;;;4932844;29;20450;-88
2023/06/19 12:24:34;;;;;;;8.50;6.57;;;34.10;37.20;;;;;;4904144;29;20646;-88
2023/06/19 12:27:01;;;;;;;7.17;6.57;;;33.80;38.00;;;;;;4922504;29;20474;-88
2023/06/19 12:29:29;;;;;;;7.80;7.10;;;33.90;37.60;;;;;;4918460;29;20482;-88
2023/06/19 12:32:01;;;;;;;7.10;6.50;;;33.70;38.10;;;;;;4917048;29;20507;-87
2023/06/19 12:34:28;;;;;;;7.03;6.43;;;33.50;38.20;;;;;;4915412;29;20463;-86
2023/06/19 12:36:56;;;;;;;9.43;6.77;;;33.60;37.30;;;;;;4923274;29;20836;-88
2023/06/19 12:39:26;;;;;;;7.60;7.00;;;33.70;37.80;;;;;;4917921;29;20459;-87
2023/06/19 12:41:53;;;;;;;7.63;6.97;;;33.90;38.00;;;;;;4931680;29;20447;-88
2023/06/19 12:44:22;;;;;;;7.27;6.50;;;34.00;37.00;;;;;;4924210;29;20458;-88
2023/06/19 12:46:49;;;;;;;6.53;6.00;;;34.20;37.40;;;;;;4922727;29;21003;-86